This is the latest recevied weather packets stored in our database for station/object N4OGP-WX. If no packets are shown the sender has not sent any weather packets the latest 1 day(s).
| Time | Temp. | Humidity | Pressure | Rain* | Wind** | Luminosity | Snow |
|---|---|---|---|---|---|---|---|
| 1777970216 | 13.89° C | 86% | 1010.3 hPa | 0 mm | 0 m/s | - | - |
| 1777970156 | 13.89° C | 87% | 1010.3 hPa | 0 mm | 0 m/s | - | - |
| 1777970096 | 13.89° C | 87% | 1010.3 hPa | 0 mm | 0 m/s | - | - |
| 1777970036 | 23.89° C | 42% | 1020.4 hPa | 0 mm | 0 m/s | - | - |
| 1777969976 | 13.89° C | 87% | 1010.4 hPa | 0 mm | 0 m/s | - | - |
| 1777969886 | 23.89° C | 42% | 1020.4 hPa | 0 mm | 0 m/s | - | - |
| 1777969826 | 13.89° C | 87% | 1010.4 hPa | 0 mm | 0 m/s | - | - |
| 1777969766 | 23.89° C | 42% | 1020.4 hPa | 0 mm | 0 m/s | - | - |
| 1777969706 | 23.89° C | 42% | 1020.4 hPa | 0 mm | 0 m/s | - | - |
| 1777969646 | 13.89° C | 87% | 1010.3 hPa | 0 mm | 0 m/s | - | - |
| 1777969586 | 23.89° C | 42% | 1020.4 hPa | 0 mm | 0 m/s | - | - |
| 1777969526 | 13.89° C | 86% | 1010.3 hPa | 0 mm | 0 m/s | - | - |
| 1777969466 | 13.89° C | 86% | 1010.3 hPa | 0 mm | 0 m/s | - | - |
| 1777969376 | 13.89° C | 86% | 1010.3 hPa | 0 mm | 0 m/s | - | - |
| 1777969286 | 13.89° C | 86% | 1010.4 hPa | 0 mm | 0 m/s | - | - |
| 1777969226 | 23.89° C | 42% | 1020.4 hPa | 0 mm | 0 m/s | - | - |
| 1777969136 | 13.89° C | 86% | 1010.4 hPa | 0 mm | 0 m/s | - | - |
| 1777969076 | 23.89° C | 42% | 1020.4 hPa | 0 mm | 0 m/s | - | - |
| 1777969016 | 13.89° C | 86% | 1010.3 hPa | 0 mm | 0 m/s | - | - |
| 1777968956 | 13.89° C | 86% | 1010.3 hPa | 0 mm | 0 m/s | - | - |
| 1777968866 | 23.89° C | 42% | 1020.4 hPa | 0 mm | 0 m/s | - | - |
| 1777968806 | 13.89° C | 86% | 1010.3 hPa | 0 mm | 0 m/s | - | - |
| 1777968746 | 13.89° C | 86% | 1010.3 hPa | 0 mm | 0 m/s | - | - |
| 1777968697 | 23.89° C | 42% | 1020.4 hPa | 0 mm | 0 m/s | - | - |
| 1777968626 | 23.89° C | 42% | 1020.4 hPa | 0 mm | 0 m/s | - | - |
* Rain latest hour (hover to see other rain measurements)
** Current wind speed in m/s (hover to see current wind gust speed)